Time;durP1;ratioP1;P1;durP2;ratioP2;P2;SDS_P1;SDS_P2;PMS_P1;PMS_P2;Temp;Humidity;BMP_temperature;BMP_pressure;BME280_temperature;BME280_humidity;BME280_pressure;Samples;Min_cycle;Max_cycle;Signal;HPM_P1;HPM_P2
2022/07/18 00:01:06;;;;;;;1.50;1.17;;;;;;;18.20;39.73;99334.16;5000290;28;20658;-48
2022/07/18 00:03:34;;;;;;;1.50;1.20;;;;;;;18.19;40.47;99322.78;4994572;28;20689;-48
2022/07/18 00:06:01;;;;;;;2.07;1.40;;;;;;;18.15;40.26;99321.50;4982184;28;20210;-48
2022/07/18 00:08:28;;;;;;;3.40;1.33;;;;;;;18.17;40.02;99321.31;4979028;28;20200;-48
2022/07/18 00:10:56;;;;;;;3.43;1.20;;;;;;;18.19;40.21;99321.94;5003956;28;20199;-48
2022/07/18 00:13:23;;;;;;;2.37;1.73;;;;;;;18.13;40.46;99324.31;4978639;28;20768;-48
2022/07/18 00:15:50;;;;;;;3.07;1.43;;;;;;;18.22;40.22;99325.06;4992070;28;20206;-49
2022/07/18 00:18:17;;;;;;;2.23;1.60;;;;;;;18.23;40.74;99323.22;4993346;28;20262;-48
2022/07/18 00:20:45;;;;;;;4.03;1.47;;;;;;;18.20;40.81;99328.88;4992614;28;20195;-48
2022/07/18 00:23:12;;;;;;;1.60;1.40;;;;;;;18.12;40.21;99329.81;5000344;28;20218;-49
2022/07/18 00:25:39;;;;;;;1.80;1.60;;;;;;;18.16;39.61;99325.78;4995474;28;20199;-48
2022/07/18 00:28:05;;;;;;;3.40;1.60;;;;;;;18.12;40.51;99329.81;4994448;28;20205;-48
2022/07/18 00:30:32;;;;;;;5.03;1.30;;;;;;;18.07;40.20;99330.34;5001154;28;20669;-48
2022/07/18 00:32:59;;;;;;;3.40;1.30;;;;;;;18.03;40.40;99329.06;4998250;28;20211;-48
2022/07/18 00:35:26;;;;;;;2.77;1.30;;;;;;;17.94;40.65;99328.31;5001945;28;20203;-48
2022/07/18 00:37:54;;;;;;;2.43;1.30;;;;;;;17.94;40.66;99319.56;4998836;28;20199;-48
2022/07/18 00:40:20;;;;;;;3.13;1.20;;;;;;;17.96;41.53;99322.84;4998434;28;20202;-48
2022/07/18 00:42:49;;;;;;;2.50;1.40;;;;;;;17.93;40.60;99313.47;5002736;28;20217;-48
2022/07/18 00:45:16;;;;;;;1.60;1.30;;;;;;;17.88;40.47;99323.75;4997656;28;20200;-48
2022/07/18 00:47:43;;;;;;;1.90;1.20;;;;;;;17.87;40.27;99318.66;4998959;28;20245;-48
2022/07/18 00:50:11;;;;;;;2.03;1.20;;;;;;;17.88;40.62;99317.66;4996360;28;20289;-48
2022/07/18 00:52:38;;;;;;;2.70;1.57;;;;;;;17.92;42.00;99319.75;4999079;28;20224;-48
2022/07/18 00:55:08;;;;;;;3.07;1.30;;;;;;;17.89;41.26;99316.66;4988430;28;20245;-49
2022/07/18 00:57:36;;;;;;;4.87;1.57;;;;;;;18.00;42.01;99324.16;4975489;28;20194;-48
2022/07/18 01:02:48;;;;;;;1.80;1.40;;;;;;;17.78;41.38;99326.66;4998870;28;20229;-48
2022/07/18 01:05:15;;;;;;;5.23;1.50;;;;;;;17.82;40.93;99327.09;4999288;28;20209;-48
2022/07/18 01:07:42;;;;;;;3.13;1.50;;;;;;;17.82;41.68;99327.94;5001917;28;20228;-48
2022/07/18 01:10:10;;;;;;;3.13;1.60;;;;;;;17.76;41.28;99319.91;4997222;28;20209;-48
2022/07/18 01:12:38;;;;;;;2.83;1.20;;;;;;;17.71;41.69;99317.81;4997423;28;20224;-48
2022/07/18 01:15:07;;;;;;;3.40;1.27;;;;;;;17.72;41.83;99311.53;4978622;28;20197;-48
2022/07/18 01:17:33;;;;;;;3.00;1.37;;;;;;;17.68;41.70;99321.63;4993982;28;20186;-48
2022/07/18 01:20:01;;;;;;;2.70;1.40;;;;;;;17.82;41.91;99314.75;4996186;28;20201;-48
2022/07/18 01:22:29;;;;;;;2.57;1.47;;;;;;;17.78;41.83;99316.09;4998193;28;20885;-48
2022/07/18 01:24:56;;;;;;;4.40;1.77;;;;;;;17.83;42.01;99316.38;4990524;28;20201;-48
2022/07/18 01:27:23;;;;;;;5.00;1.20;;;;;;;17.79;41.72;99316.91;4996938;28;20268;-48
2022/07/18 01:29:52;;;;;;;3.00;1.50;;;;;;;17.73;41.64;99315.81;4991778;28;20204;-48
2022/07/18 01:32:20;;;;;;;3.10;1.40;;;;;;;17.66;40.94;99320.19;4999475;28;20372;-48
2022/07/18 01:34:48;;;;;;;1.50;1.00;;;;;;;17.61;40.79;99311.97;4996942;28;20194;-48
2022/07/18 01:37:16;;;;;;;2.33;1.20;;;;;;;17.56;40.59;99313.34;4997661;28;20196;-48
2022/07/18 01:39:45;;;;;;;2.07;1.13;;;;;;;17.54;40.86;99317.97;5002140;28;20205;-50
2022/07/18 01:42:14;;;;;;;2.80;1.20;;;;;;;17.66;41.47;99321.00;4998353;28;20205;-48
2022/07/18 01:44:41;;;;;;;1.70;1.20;;;;;;;17.62;41.30;99316.25;4981956;28;20196;-48
2022/07/18 01:47:10;;;;;;;3.90;1.00;;;;;;;17.53;41.57;99321.63;4992660;28;20267;-48
2022/07/18 01:49:38;;;;;;;2.60;1.00;;;;;;;17.52;40.72;99316.50;4997325;28;20214;-48
2022/07/18 01:52:06;;;;;;;2.50;1.00;;;;;;;17.46;41.25;99314.59;4981577;28;20244;-48
2022/07/18 01:54:35;;;;;;;2.67;1.10;;;;;;;17.52;40.71;99314.69;4997172;28;20614;-47
2022/07/18 01:57:06;;;;;;;2.83;1.13;;;;;;;17.55;42.20;99316.97;5006643;28;20276;-49
2022/07/18 01:59:33;;;;;;;3.43;1.40;;;;;;;17.44;41.46;99316.59;4993525;28;20268;-49
2022/07/18 02:02:00;;;;;;;1.17;0.90;;;;;;;17.50;40.79;99310.56;5002141;28;20224;-48
2022/07/18 02:07:09;;;;;;;1.40;0.90;;;;;;;17.43;40.88;99313.13;4998520;28;20225;-48
2022/07/18 02:09:36;;;;;;;1.67;1.20;;;;;;;17.37;41.19;99306.75;4999982;28;20194;-48
2022/07/18 02:12:05;;;;;;;1.97;1.20;;;;;;;17.45;40.96;99302.41;5001522;28;20204;-48
2022/07/18 02:14:33;;;;;;;2.57;1.07;;;;;;;17.39;41.38;99314.47;5005308;28;20260;-48
2022/07/18 02:17:00;;;;;;;1.17;0.97;;;;;;;17.30;41.06;99307.63;5008499;28;20215;-48
2022/07/18 02:19:27;;;;;;;1.30;1.10;;;;;;;17.21;41.88;99305.06;5007994;28;20219;-48
2022/07/18 02:21:54;;;;;;;1.87;1.00;;;;;;;17.19;41.64;99308.88;5001623;28;20216;-48
2022/07/18 02:24:21;;;;;;;1.33;0.90;;;;;;;17.26;42.67;99304.53;5006247;28;20210;-48
2022/07/18 02:26:48;;;;;;;1.90;1.00;;;;;;;17.22;41.61;99308.53;5007921;28;20192;-48
2022/07/18 02:29:16;;;;;;;3.07;1.10;;;;;;;17.20;41.99;99310.53;4998598;28;20202;-48
2022/07/18 02:31:43;;;;;;;3.27;1.20;;;;;;;17.19;42.27;99308.88;4994617;28;20203;-48
2022/07/18 02:34:10;;;;;;;1.57;0.90;;;;;;;17.20;41.63;99308.69;5007867;28;20628;-48
2022/07/18 02:36:37;;;;;;;1.40;0.90;;;;;;;17.28;41.75;99307.81;5003797;28;20200;-48
2022/07/18 02:39:05;;;;;;;2.13;1.10;;;;;;;17.25;42.07;99302.91;5006368;28;20195;-48
2022/07/18 02:41:32;;;;;;;1.83;1.07;;;;;;;17.13;42.23;99307.75;5007639;28;20222;-48
2022/07/18 02:44:00;;;;;;;2.07;1.13;;;;;;;17.20;41.84;99299.97;5006314;28;20295;-47
2022/07/18 02:46:28;;;;;;;1.70;1.03;;;;;;;17.10;42.31;99301.03;5007877;28;20192;-48
2022/07/18 02:48:56;;;;;;;1.63;1.30;;;;;;;17.00;43.13;99300.44;5002843;28;20242;-48
2022/07/18 02:51:23;;;;;;;3.13;1.00;;;;;;;16.96;42.39;99301.75;5004969;28;20208;-47
2022/07/18 02:53:50;;;;;;;4.80;1.20;;;;;;;16.98;41.55;99307.72;5007418;28;20743;-48
2022/07/18 02:56:16;;;;;;;1.87;1.53;;;;;;;16.92;43.00;99300.47;5007109;28;20608;-49
2022/07/18 02:59:01;;;;;;;5.23;1.47;;;;;;;16.83;42.86;99303.16;5006987;28;20673;-48
2022/07/18 03:01:30;;;;;;;2.63;1.20;;;;;;;16.79;43.56;99298.41;5005269;28;20203;-48
2022/07/18 03:03:57;;;;;;;3.43;1.30;;;;;;;16.88;42.68;99302.66;4989360;28;20226;-48
2022/07/18 03:06:23;;;;;;;2.17;1.33;;;;;;;16.92;44.32;99298.66;5007030;28;20665;-47
2022/07/18 03:08:51;;;;;;;3.60;1.27;;;;;;;16.82;43.75;99300.72;4983478;28;20214;-48
2022/07/18 03:11:17;;;;;;;1.20;1.10;;;;;;;16.86;43.29;99302.00;5004252;28;20272;-48
2022/07/18 03:13:44;;;;;;;2.57;1.10;;;;;;;16.99;43.40;99305.88;5004317;28;20273;-48
2022/07/18 03:16:11;;;;;;;2.63;1.37;;;;;;;16.86;43.44;99303.81;4988553;28;20196;-48
2022/07/18 03:18:40;;;;;;;3.43;1.20;;;;;;;16.75;43.40;99305.03;5002315;28;20206;-48
2022/07/18 03:21:07;;;;;;;2.53;1.30;;;;;;;16.76;43.03;99307.47;5006762;28;20187;-47
2022/07/18 03:23:34;;;;;;;1.30;1.10;;;;;;;16.72;43.37;99302.75;5000489;28;20306;-48
2022/07/18 03:26:01;;;;;;;3.47;1.30;;;;;;;16.76;44.17;99296.94;5001981;28;20282;-48
2022/07/18 03:28:27;;;;;;;4.07;1.40;;;;;;;16.67;44.81;99301.44;5007126;28;20295;-48
2022/07/18 03:30:58;;;;;;;3.13;1.23;;;;;;;16.62;44.61;99295.88;4994156;28;20726;-48
2022/07/18 03:33:25;;;;;;;3.37;1.13;;;;;;;16.57;44.94;99298.22;5002114;28;20313;-48
2022/07/18 03:35:53;;;;;;;2.60;1.40;;;;;;;16.54;45.50;99295.94;5007002;28;20599;-48
2022/07/18 03:38:20;;;;;;;3.53;1.37;;;;;;;16.47;45.73;99301.06;5003424;28;20196;-48
2022/07/18 03:40:47;;;;;;;4.13;1.30;;;;;;;16.43;46.33;99296.31;5004047;28;20217;-48
2022/07/18 03:43:13;;;;;;;2.97;1.23;;;;;;;16.40;46.06;99299.28;5006549;28;20226;-48
2022/07/18 03:45:59;;;;;;;1.87;1.33;;;;;;;16.32;46.62;99300.16;5002225;28;20212;-48
2022/07/18 03:48:26;;;;;;;3.83;1.50;;;;;;;16.27;46.44;99299.84;4988567;28;20218;-48
2022/07/18 03:50:54;;;;;;;1.87;1.30;;;;;;;16.30;46.69;99302.16;4997140;28;20196;-48
2022/07/18 03:53:22;;;;;;;3.03;1.30;;;;;;;16.24;47.20;99293.09;5003411;28;20206;-48
2022/07/18 03:55:48;;;;;;;1.57;1.30;;;;;;;16.21;46.74;99294.28;5006622;28;20273;-48
2022/07/18 03:58:15;;;;;;;1.30;1.20;;;;;;;16.34;46.25;99285.81;5002689;28;20195;-48
2022/07/18 04:00:42;;;;;;;1.40;1.10;;;;;;;16.33;46.72;99291.25;5006545;28;20544;-48
2022/07/18 04:03:09;;;;;;;3.43;1.80;;;;;;;16.40;45.63;99289.59;5005929;28;20274;-48
2022/07/18 04:05:36;;;;;;;1.83;1.17;;;;;;;16.58;46.36;99286.69;4998839;28;20343;-47
2022/07/18 04:08:05;;;;;;;2.67;1.23;;;;;;;16.59;47.20;99293.59;4997964;28;20769;-47
2022/07/18 04:10:32;;;;;;;3.90;1.53;;;;;;;16.59;46.15;99298.88;5002417;28;20596;-48
2022/07/18 04:13:00;;;;;;;2.27;1.60;;;;;;;16.69;46.17;99298.63;4973957;28;20269;-47
2022/07/18 04:15:27;;;;;;;2.03;1.33;;;;;;;16.76;46.69;99304.03;4971553;28;20206;-49
2022/07/18 04:17:54;;;;;;;5.13;1.13;;;;;;;16.76;47.10;99306.69;5000213;28;20223;-48
2022/07/18 04:20:22;;;;;;;3.70;1.40;;;;;;;16.82;46.06;99303.34;5001625;28;20201;-48
2022/07/18 04:22:51;;;;;;;2.63;1.30;;;;;;;16.84;46.57;99296.09;5002211;28;20209;-48
2022/07/18 04:25:21;;;;;;;4.13;1.77;;;;;;;17.02;46.93;99303.72;4988346;28;20582;-48
2022/07/18 04:27:48;;;;;;;1.40;1.20;;;;;;;17.05;47.43;99302.53;5006206;28;20638;-47
2022/07/18 04:30:34;;;;;;;2.23;1.40;;;;;;;17.05;46.00;99298.09;5003478;28;20216;-48
2022/07/18 04:33:03;;;;;;;1.43;1.20;;;;;;;17.10;46.73;99306.31;4983727;28;20229;-47
2022/07/18 04:35:30;;;;;;;3.90;1.43;;;;;;;17.13;46.86;99309.59;5005037;28;20679;-48
2022/07/18 04:37:59;;;;;;;1.80;1.30;;;;;;;17.13;46.98;99313.03;5010147;28;20278;-48
2022/07/18 04:40:27;;;;;;;2.83;1.50;;;;;;;17.10;48.36;99308.94;4992167;28;20222;-48
2022/07/18 04:42:53;;;;;;;3.10;1.30;;;;;;;17.10;48.58;99316.84;4992168;28;20215;-48
2022/07/18 04:45:23;;;;;;;3.70;1.50;;;;;;;17.10;47.92;99308.94;5007500;28;20301;-48
2022/07/18 04:47:50;;;;;;;1.70;1.27;;;;;;;17.11;47.74;99322.94;5009116;28;20213;-48
2022/07/18 04:50:18;;;;;;;2.80;1.50;;;;;;;17.09;48.49;99324.94;5010235;28;20200;-48
2022/07/18 04:52:46;;;;;;;2.80;1.50;;;;;;;17.07;48.22;99311.09;5009499;28;20682;-48
2022/07/18 04:55:16;;;;;;;2.93;1.60;;;;;;;17.06;47.99;99310.28;5009759;28;20632;-48
2022/07/18 04:57:45;;;;;;;2.53;1.53;;;;;;;17.07;48.18;99322.47;5009813;28;20199;-48
2022/07/18 05:00:14;;;;;;;3.47;1.63;;;;;;;17.07;48.80;99321.66;4988956;28;20202;-48
2022/07/18 05:02:41;;;;;;;3.27;1.90;;;;;;;17.01;49.54;99328.47;5005114;28;20221;-48
2022/07/18 05:05:10;;;;;;;3.30;1.60;;;;;;;16.99;50.23;99327.81;5006235;28;20736;-48
2022/07/18 05:07:37;;;;;;;6.07;1.67;;;;;;;16.97;50.66;99333.25;5001782;28;20193;-48
2022/07/18 05:10:07;;;;;;;6.60;1.43;;;;;;;16.92;51.29;99330.31;5005180;28;20189;-48
2022/07/18 05:12:34;;;;;;;2.33;1.63;;;;;;;16.92;50.18;99330.31;5006459;28;20214;-48
2022/07/18 05:15:05;;;;;;;5.33;1.80;;;;;;;16.96;51.32;99331.59;5006446;28;20187;-48
2022/07/18 05:17:33;;;;;;;3.23;2.20;;;;;;;17.03;50.71;99338.81;5009228;28;20290;-48
2022/07/18 05:20:00;;;;;;;2.10;1.90;;;;;;;17.05;51.56;99340.31;4999055;28;20188;-48
2022/07/18 05:22:27;;;;;;;5.77;2.10;;;;;;;17.06;50.87;99331.41;5009005;28;20281;-48
2022/07/18 05:24:54;;;;;;;2.37;1.87;;;;;;;17.09;51.13;99336.31;5003157;28;20258;-48
2022/07/18 05:27:21;;;;;;;4.77;2.10;;;;;;;17.11;50.77;99334.31;5007631;28;20294;-47
2022/07/18 05:29:48;;;;;;;3.00;1.77;;;;;;;17.13;51.26;99346.50;4995703;28;20219;-48
2022/07/18 05:32:16;;;;;;;2.10;1.67;;;;;;;17.14;51.31;99343.69;4994996;28;20208;-48
2022/07/18 05:34:43;;;;;;;3.87;2.10;;;;;;;17.17;51.21;99353.09;4995753;28;20284;-48
2022/07/18 05:37:11;;;;;;;2.33;1.67;;;;;;;17.19;50.93;99340.53;5008109;28;20213;-48
2022/07/18 05:39:39;;;;;;;4.10;1.70;;;;;;;17.23;50.97;99347.09;4979948;28;20239;-48
2022/07/18 05:42:06;;;;;;;3.13;2.07;;;;;;;17.26;51.29;99341.47;5000771;28;20200;-48
2022/07/18 05:44:33;;;;;;;2.33;1.70;;;;;;;17.31;51.63;99338.28;5008237;28;20665;-48
2022/07/18 05:47:00;;;;;;;2.90;1.90;;;;;;;17.38;51.45;99333.94;5004424;28;20258;-48
2022/07/18 05:49:28;;;;;;;4.80;1.90;;;;;;;17.45;51.13;99342.78;5003457;28;20764;-49
2022/07/18 05:51:56;;;;;;;3.03;1.60;;;;;;;17.48;51.18;99333.72;5005150;28;20218;-48
2022/07/18 05:54:23;;;;;;;3.83;2.00;;;;;;;17.55;50.82;99335.44;4999473;28;20190;-48
2022/07/18 05:56:52;;;;;;;2.27;1.73;;;;;;;17.67;50.13;99332.38;5002345;28;20725;-48
2022/07/18 05:59:20;;;;;;;2.63;1.50;;;;;;;17.83;50.23;99326.94;5006361;28;20633;-48
2022/07/18 06:01:47;;;;;;;3.63;1.37;;;;;;;18.03;49.74;99330.91;5005447;28;20640;-48
2022/07/18 06:04:15;;;;;;;1.77;1.67;;;;;;;18.23;49.21;99329.34;5008362;28;20786;-48
2022/07/18 06:06:44;;;;;;;4.13;1.70;;;;;;;18.42;48.76;99329.78;5003899;28;20232;-48
2022/07/18 06:09:12;;;;;;;7.00;1.50;;;;;;;18.63;48.28;99330.81;4973063;28;20225;-48
2022/07/18 06:11:39;;;;;;;1.67;1.53;;;;;;;18.84;47.74;99333.50;5001940;28;20206;-48
2022/07/18 06:14:07;;;;;;;4.07;1.53;;;;;;;19.05;47.60;99334.56;4996691;28;20212;-48
2022/07/18 06:16:34;;;;;;;1.70;1.43;;;;;;;19.26;47.14;99323.13;5005195;28;20201;-48
2022/07/18 06:19:01;;;;;;;1.80;1.50;;;;;;;19.47;46.61;99327.59;5008305;28;20728;-48
2022/07/18 06:21:28;;;;;;;2.30;1.70;;;;;;;19.69;45.81;99330.19;5000918;28;20201;-48
2022/07/18 06:23:56;;;;;;;3.20;1.30;;;;;;;19.88;45.04;99333.16;5005333;28;20225;-48
2022/07/18 06:26:23;;;;;;;2.97;1.87;;;;;;;20.08;44.06;99328.03;5006067;28;20344;-48
2022/07/18 06:28:51;;;;;;;2.53;1.60;;;;;;;20.28;43.99;99327.28;4994698;28;20234;-48
2022/07/18 06:31:18;;;;;;;2.10;1.70;;;;;;;20.43;44.69;99335.91;5007253;28;20218;-48
2022/07/18 06:33:45;;;;;;;1.83;1.50;;;;;;;20.58;45.03;99327.00;4998729;28;20226;-48
2022/07/18 06:36:13;;;;;;;1.60;1.40;;;;;;;20.69;43.54;99318.47;4994247;28;20568;-48
2022/07/18 06:39:00;;;;;;;1.93;1.40;;;;;;;20.87;43.55;99314.47;5004082;28;20285;-48
2022/07/18 06:41:27;;;;;;;4.33;1.67;;;;;;;20.98;43.17;99316.53;5001949;28;20670;-48
2022/07/18 06:43:54;;;;;;;2.13;1.50;;;;;;;21.10;42.98;99322.03;4999886;28;20217;-48
2022/07/18 06:46:20;;;;;;;2.60;1.40;;;;;;;21.23;43.66;99324.72;4993081;28;20578;-48
2022/07/18 06:48:48;;;;;;;3.40;1.50;;;;;;;21.42;43.29;99330.22;4994306;28;20210;-47
2022/07/18 06:51:15;;;;;;;4.40;1.20;;;;;;;21.57;42.99;99321.25;5002141;28;20204;-48
2022/07/18 06:53:43;;;;;;;2.57;1.50;;;;;;;21.74;42.41;99338.38;4998630;28;20220;-48
2022/07/18 06:56:11;;;;;;;4.37;1.47;;;;;;;21.83;42.24;99334.50;5001269;28;20184;-48
2022/07/18 06:58:39;;;;;;;5.47;2.20;;;;;;;21.89;41.17;99335.53;5002379;28;20201;-48
2022/07/18 07:01:07;;;;;;;6.20;2.83;;;;;;;21.83;41.54;99339.81;4997333;28;20200;-48
2022/07/18 07:03:34;;;;;;;3.73;2.00;;;;;;;21.90;42.42;99338.97;4998052;28;20719;-48
2022/07/18 07:06:01;;;;;;;3.60;2.27;;;;;;;21.93;42.29;99338.56;5000104;28;20199;-48
2022/07/18 07:08:28;;;;;;;4.93;2.47;;;;;;;21.99;42.32;99342.25;5002349;28;20209;-48
2022/07/18 07:10:56;;;;;;;5.93;2.33;;;;;;;21.96;42.46;99344.28;4977318;28;20208;-48
2022/07/18 07:13:24;;;;;;;6.33;2.57;;;;;;;21.97;41.43;99345.94;4977390;28;20256;-48
2022/07/18 07:15:52;;;;;;;3.27;2.20;;;;;;;22.05;41.32;99346.75;4995074;28;20812;-48
2022/07/18 07:18:19;;;;;;;3.77;2.10;;;;;;;22.05;41.10;99342.22;4997916;28;20306;-48
2022/07/18 07:20:47;;;;;;;7.23;2.43;;;;;;;22.08;41.40;99343.66;4998860;28;20655;-48
2022/07/18 07:23:14;;;;;;;4.17;2.20;;;;;;;22.21;40.33;99345.44;4994578;28;20222;-48
2022/07/18 07:25:41;;;;;;;6.33;2.23;;;;;;;22.20;39.88;99346.47;5000851;28;20235;-48
2022/07/18 07:28:09;;;;;;;6.60;2.73;;;;;;;22.07;40.17;99348.16;5002153;28;20326;-49
2022/07/18 07:30:37;;;;;;;3.90;2.20;;;;;;;22.32;39.80;99352.78;4997366;28;20210;-48
2022/07/18 07:33:08;;;;;;;3.43;2.23;;;;;;;22.35;40.26;99357.69;5000509;28;20220;-48
2022/07/18 07:35:36;;;;;;;5.77;2.70;;;;;;;22.34;39.81;99360.53;4994384;28;20193;-48
2022/07/18 07:38:03;;;;;;;3.87;2.33;;;;;;;22.51;39.28;99355.59;5002000;28;20206;-48
2022/07/18 07:40:30;;;;;;;3.23;2.63;;;;;;;22.48;39.67;99362.16;4982625;28;20229;-48
2022/07/18 07:43:09;;;;;;;6.23;2.50;;;;;;;22.56;39.66;99359.25;4994807;28;20213;-48
2022/07/18 07:45:38;;;;;;;9.10;2.53;;;;;;;22.74;39.91;99370.25;5001716;28;20536;-48
2022/07/18 07:48:06;;;;;;;4.47;2.80;;;;;;;22.79;39.37;99359.78;4992453;28;20186;-48
2022/07/18 07:50:33;;;;;;;5.43;2.80;;;;;;;22.79;39.52;99367.78;4995495;28;20224;-48
2022/07/18 07:53:01;;;;;;;7.10;2.70;;;;;;;22.99;39.02;99360.47;4998266;28;20227;-48
2022/07/18 07:55:29;;;;;;;4.40;3.03;;;;;;;22.96;38.62;99358.22;4997759;28;20207;-48
2022/07/18 07:57:55;;;;;;;5.13;2.83;;;;;;;22.83;39.02;99352.97;4998058;28;20517;-48
2022/07/18 08:00:22;;;;;;;4.77;3.00;;;;;;;23.00;39.48;99354.09;4994583;28;20651;-48
2022/07/18 08:02:56;;;;;;;7.93;3.00;;;;;;;23.20;38.64;99355.03;5001849;28;20221;-48
2022/07/18 08:05:23;;;;;;;5.00;2.90;;;;;;;23.20;38.72;99347.84;4974454;28;20270;-48
2022/07/18 08:07:51;;;;;;;7.10;2.80;;;;;;;23.22;38.58;99344.97;4978492;28;20213;-48
2022/07/18 08:10:19;;;;;;;4.67;2.83;;;;;;;23.26;37.94;99343.53;4998791;28;20219;-48
2022/07/18 08:12:47;;;;;;;3.97;2.40;;;;;;;23.29;37.93;99345.78;4998476;28;20383;-48
2022/07/18 08:15:14;;;;;;;3.53;2.60;;;;;;;23.32;38.07;99341.84;5002985;28;20207;-48
2022/07/18 08:17:41;;;;;;;3.97;2.90;;;;;;;23.46;37.52;99337.22;5001265;28;20197;-48
2022/07/18 08:20:11;;;;;;;6.43;2.40;;;;;;;23.47;36.75;99347.66;5003936;28;20645;-48
2022/07/18 08:22:51;;;;;;;6.00;2.37;;;;;;;23.56;36.31;99341.03;5001158;28;20613;-48
2022/07/18 08:25:19;;;;;;;3.90;2.63;;;;;;;23.52;37.12;99349.66;4995827;28;20208;-48
2022/07/18 08:27:45;;;;;;;4.07;2.80;;;;;;;23.53;36.09;99344.13;5002471;28;20199;-48
2022/07/18 08:30:13;;;;;;;6.30;2.73;;;;;;;23.60;36.59;99346.72;4992495;28;20704;-48
2022/07/18 08:32:40;;;;;;;6.03;2.50;;;;;;;23.77;35.97;99346.16;5005265;28;20222;-48
2022/07/18 08:35:08;;;;;;;4.77;2.57;;;;;;;23.67;35.13;99333.34;4998673;28;20189;-48
2022/07/18 08:37:36;;;;;;;4.13;2.53;;;;;;;23.86;35.25;99337.66;4974511;28;20212;-48
2022/07/18 08:40:04;;;;;;;3.90;2.40;;;;;;;23.89;35.25;99334.53;5001221;28;20197;-48
2022/07/18 08:42:34;;;;;;;4.77;2.50;;;;;;;23.97;35.25;99335.28;4996063;28;20208;-48
2022/07/18 08:45:01;;;;;;;3.87;2.30;;;;;;;24.08;36.52;99326.59;5004264;28;20197;-48
2022/07/18 08:47:30;;;;;;;4.30;2.43;;;;;;;24.31;35.86;99322.44;4996683;28;20256;-49
2022/07/18 08:49:57;;;;;;;3.70;2.60;;;;;;;24.46;35.53;99322.03;4992316;28;20205;-48
2022/07/18 08:52:24;;;;;;;4.60;2.50;;;;;;;24.64;35.21;99328.38;4996456;28;20608;-48
2022/07/18 08:54:52;;;;;;;3.37;2.37;;;;;;;24.73;35.68;99327.03;5001836;28;20291;-48
2022/07/18 08:57:19;;;;;;;4.40;2.37;;;;;;;24.83;35.60;99329.19;4994986;28;20208;-48
2022/07/18 08:59:46;;;;;;;7.37;2.77;;;;;;;24.86;35.21;99324.19;4994703;28;20586;-48
2022/07/18 09:02:13;;;;;;;3.10;2.53;;;;;;;24.90;34.45;99314.69;4995685;28;20197;-51
2022/07/18 09:04:44;;;;;;;7.10;2.50;;;;;;;24.84;34.09;99320.13;4996905;28;20252;-48
2022/07/18 09:07:24;;;;;;;3.23;2.57;;;;;;;24.95;34.63;99316.66;4996300;28;20225;-48
2022/07/18 09:09:58;;;;;;;4.27;2.37;;;;;;;25.09;34.45;99316.44;4996001;28;20584;-48
2022/07/18 09:12:27;;;;;;;5.53;2.50;;;;;;;25.22;34.00;99321.59;4993343;28;20218;-48
2022/07/18 09:14:55;;;;;;;3.92;2.30;;;;;;;25.29;34.44;99313.47;4993655;28;20589;-48
2022/07/18 09:17:23;;;;;;;6.30;2.50;;;;;;;25.46;34.07;99313.63;5003018;28;20847;-48
2022/07/18 09:20:04;;;;;;;3.65;2.45;;;;;;;25.50;33.87;99325.47;4995543;28;20282;-48
2022/07/18 09:22:33;;;;;;;11.30;2.40;;;;;;;25.52;34.09;99318.03;4993782;28;20220;-48
2022/07/18 09:25:06;;;;;;;4.18;2.60;;;;;;;25.56;34.82;99318.38;4997855;28;20197;-49
2022/07/18 09:27:35;;;;;;;7.70;2.17;;;;;;;25.59;35.40;99324.09;4994616;28;20283;-48
2022/07/18 09:30:18;;;;;;;5.50;2.20;;;;;;;25.76;35.69;99318.84;4998191;28;20253;-48
2022/07/18 09:32:46;;;;;;;7.75;2.63;;;;;;;25.77;35.77;99325.00;5000822;28;20219;-48
2022/07/18 09:35:14;;;;;;;8.00;2.30;;;;;;;25.88;35.28;99326.03;4975834;28;20213;-48
2022/07/18 09:37:52;;;;;;;3.60;2.58;;;;;;;25.90;35.46;99326.63;4979105;28;20281;-46
2022/07/18 09:40:40;;;;;;;7.85;2.50;;;;;;;26.02;34.84;99335.44;5003765;28;20208;-46
2022/07/18 09:43:09;;;;;;;5.27;2.30;;;;;;;26.02;35.69;99319.38;5002292;28;20229;-46
2022/07/18 09:45:38;;;;;;;6.72;2.30;;;;;;;26.16;35.13;99324.50;5001357;28;20248;-46
2022/07/18 09:48:08;;;;;;;4.80;2.10;;;;;;;26.16;34.33;99324.50;4982432;28;20203;-46
2022/07/18 09:50:37;;;;;;;3.20;2.10;;;;;;;26.23;34.24;99322.50;4998684;28;20217;-46
2022/07/18 09:53:11;;;;;;;5.22;2.00;;;;;;;26.43;34.13;99319.41;4998745;28;20221;-46
2022/07/18 09:55:44;;;;;;;4.82;2.33;;;;;;;26.52;33.94;99314.47;5000025;28;20197;-46
2022/07/18 09:58:12;;;;;;;5.13;2.20;;;;;;;26.60;33.85;99315.97;4998116;28;20676;-47
2022/07/18 10:00:40;;;;;;;5.18;2.30;;;;;;;26.81;33.04;99317.97;5000333;28;20191;-46
2022/07/18 10:03:09;;;;;;;2.65;2.15;;;;;;;26.78;33.05;99322.97;4997173;28;20312;-46
2022/07/18 10:05:37;;;;;;;8.85;2.20;;;;;;;26.78;33.11;99317.63;4984795;28;20663;-46
2022/07/18 10:08:06;;;;;;;3.85;1.90;;;;;;;26.96;33.78;99327.34;4997492;28;20219;-46
2022/07/18 10:10:33;;;;;;;5.55;2.10;;;;;;;27.09;32.45;99318.19;4994915;28;20218;-46
2022/07/18 10:13:03;;;;;;;4.65;2.03;;;;;;;27.21;31.50;99315.41;4996970;28;20243;-46
2022/07/18 10:15:32;;;;;;;5.75;2.08;;;;;;;27.16;31.63;99316.16;5000124;28;20231;-47
2022/07/18 10:18:01;;;;;;;5.20;2.20;;;;;;;27.36;31.23;99312.19;5002708;28;20232;-46
2022/07/18 10:20:32;;;;;;;7.80;2.53;;;;;;;27.33;31.46;99313.47;4994639;28;20773;-46
2022/07/18 10:23:07;;;;;;;2.27;1.80;;;;;;;27.47;32.10;99313.97;4981310;28;20233;-47
2022/07/18 10:25:34;;;;;;;3.53;2.33;;;;;;;27.60;31.20;99315.50;4995859;28;20578;-47
2022/07/18 10:28:10;;;;;;;4.57;2.10;;;;;;;27.78;32.08;99318.97;4995055;28;20561;-47
2022/07/18 10:30:42;;;;;;;6.10;2.53;;;;;;;27.83;30.85;99306.41;4998421;28;20437;-47
2022/07/18 10:33:41;;;;;;;3.80;2.30;;;;;;;27.80;31.04;99314.16;4990910;28;20250;-47
2022/07/18 10:36:10;;;;;;;7.22;2.05;;;;;;;27.97;31.31;99306.06;5002802;28;20513;-47
2022/07/18 10:38:38;;;;;;;6.80;2.40;;;;;;;28.21;31.44;99303.94;4995325;28;20236;-47
2022/07/18 10:41:09;;;;;;;3.05;2.10;;;;;;;28.28;31.56;99307.25;4979825;28;20221;-46
2022/07/18 10:43:40;;;;;;;4.20;1.77;;;;;;;28.42;30.37;99296.13;5000067;28;20707;-46
2022/07/18 10:46:09;;;;;;;5.55;2.10;;;;;;;28.42;29.83;99302.31;5019532;28;20191;-47
2022/07/18 10:48:56;;;;;;;2.60;1.88;;;;;;;28.54;28.99;99288.72;5017324;28;20191;-46
2022/07/18 10:51:32;;;;;;;4.53;2.10;;;;;;;28.66;28.61;99293.94;5012656;28;20225;-46
2022/07/18 10:54:18;;;;;;;3.90;1.98;;;;;;;28.71;28.13;99293.97;5013690;28;20742;-47
2022/07/18 10:57:10;;;;;;;9.48;2.22;;;;;;;28.80;29.34;99288.19;5013406;28;20192;-46
2022/07/18 10:59:59;;;;;;;6.30;2.97;;;;;;;28.87;28.68;99300.34;5013315;28;20553;-46
2022/07/18 11:02:33;;;;;;;7.63;2.20;;;;;;;29.00;28.57;99290.25;5013046;28;20219;-46
2022/07/18 11:04:59;;;;;;;3.13;1.92;;;;;;;29.00;28.04;99282.19;5013439;28;20201;-49
2022/07/18 11:07:27;;;;;;;4.80;2.28;;;;;;;29.10;28.30;99284.13;5013390;28;20187;-46
2022/07/18 11:09:54;;;;;;;6.97;2.10;;;;;;;29.25;28.35;99284.25;5015494;28;20211;-46
2022/07/18 11:12:27;;;;;;;10.93;2.00;;;;;;;29.43;27.82;99283.03;5009617;28;20223;-47
2022/07/18 11:15:12;;;;;;;6.82;1.95;;;;;;;29.42;29.32;99272.53;5007489;28;20192;-46
2022/07/18 11:18:00;;;;;;;7.43;2.20;;;;;;;29.39;29.07;99284.63;5009386;28;20184;-46
2022/07/18 11:20:29;;;;;;;8.05;1.98;;;;;;;29.41;28.71;99279.78;5010630;28;20196;-47
2022/07/18 11:22:57;;;;;;;5.55;2.35;;;;;;;29.42;29.52;99278.72;5012284;28;20211;-47
2022/07/18 11:25:27;;;;;;;6.47;1.90;;;;;;;29.48;27.61;99273.38;5014117;28;20207;-47
2022/07/18 11:27:54;;;;;;;6.47;1.95;;;;;;;29.53;28.40;99282.28;5004990;28;20188;-46
2022/07/18 11:30:24;;;;;;;4.07;2.00;;;;;;;29.46;28.52;99273.66;5010186;28;20205;-47
2022/07/18 11:32:51;;;;;;;3.58;1.80;;;;;;;29.49;29.01;99278.50;5000040;28;20231;-46
2022/07/18 11:35:23;;;;;;;5.18;2.35;;;;;;;29.41;29.19;99273.63;5024324;28;20192;-46
2022/07/18 11:37:52;;;;;;;4.75;2.20;;;;;;;29.52;28.95;99269.91;5032492;28;20274;-46
2022/07/18 11:40:19;;;;;;;3.50;2.20;;;;;;;29.68;28.35;99265.41;5032282;28;20659;-46
2022/07/18 11:42:46;;;;;;;11.15;2.15;;;;;;;29.79;27.98;99273.53;5032219;28;20258;-46
2022/07/18 11:45:15;;;;;;;7.22;2.22;;;;;;;29.70;28.27;99278.59;5031904;28;20212;-46
2022/07/18 11:47:48;;;;;;;6.65;2.17;;;;;;;29.70;28.54;99267.81;5032278;28;20196;-47